sensor_id;sensor_type;location;lat;lon;timestamp;P1;durP1;ratioP1;P2;durP2;ratioP2
21731;SDS011;11028;51.156;17.130;2023-03-01T00:06:10;111.80;;;45.70;;
21731;SDS011;11028;51.156;17.130;2023-03-01T00:13:29;111.32;;;45.30;;
21731;SDS011;11028;51.156;17.130;2023-03-01T00:20:49;116.55;;;47.90;;
21731;SDS011;11028;51.156;17.130;2023-03-01T00:28:09;125.00;;;46.42;;
21731;SDS011;11028;51.156;17.130;2023-03-01T00:35:27;101.70;;;44.35;;
21731;SDS011;11028;51.156;17.130;2023-03-01T00:42:45;119.85;;;45.97;;
21731;SDS011;11028;51.156;17.130;2023-03-01T00:50:06;107.45;;;42.45;;
21731;SDS011;11028;51.156;17.130;2023-03-01T00:57:25;109.32;;;43.40;;
21731;SDS011;11028;51.156;17.130;2023-03-01T01:04:44;108.43;;;41.03;;
21731;SDS011;11028;51.156;17.130;2023-03-01T01:12:04;105.30;;;42.17;;
21731;SDS011;11028;51.156;17.130;2023-03-01T01:19:23;109.30;;;44.67;;
21731;SDS011;11028;51.156;17.130;2023-03-01T01:26:43;106.40;;;42.83;;
21731;SDS011;11028;51.156;17.130;2023-03-01T01:34:03;118.03;;;45.72;;
21731;SDS011;11028;51.156;17.130;2023-03-01T01:41:23;133.07;;;54.20;;
21731;SDS011;11028;51.156;17.130;2023-03-01T01:48:42;139.18;;;58.13;;
21731;SDS011;11028;51.156;17.130;2023-03-01T01:56:03;136.38;;;55.50;;
21731;SDS011;11028;51.156;17.130;2023-03-01T02:03:25;149.73;;;57.13;;
21731;SDS011;11028;51.156;17.130;2023-03-01T02:10:46;110.43;;;43.60;;
21731;SDS011;11028;51.156;17.130;2023-03-01T02:18:06;154.45;;;61.33;;
21731;SDS011;11028;51.156;17.130;2023-03-01T02:25:31;155.75;;;61.05;;
21731;SDS011;11028;51.156;17.130;2023-03-01T02:32:54;150.43;;;55.83;;
21731;SDS011;11028;51.156;17.130;2023-03-01T02:40:19;132.88;;;51.78;;
21731;SDS011;11028;51.156;17.130;2023-03-01T02:47:38;102.45;;;40.70;;
21731;SDS011;11028;51.156;17.130;2023-03-01T02:54:59;110.00;;;45.45;;
21731;SDS011;11028;51.156;17.130;2023-03-01T03:02:20;113.03;;;46.70;;
21731;SDS011;11028;51.156;17.130;2023-03-01T03:10:02;117.93;;;44.53;;
21731;SDS011;11028;51.156;17.130;2023-03-01T03:17:21;119.93;;;46.65;;
21731;SDS011;11028;51.156;17.130;2023-03-01T03:24:39;112.07;;;44.97;;
21731;SDS011;11028;51.156;17.130;2023-03-01T03:31:59;108.45;;;44.83;;
21731;SDS011;11028;51.156;17.130;2023-03-01T03:39:17;113.97;;;44.05;;
21731;SDS011;11028;51.156;17.130;2023-03-01T03:46:36;98.63;;;41.20;;
21731;SDS011;11028;51.156;17.130;2023-03-01T03:53:55;103.25;;;39.55;;
21731;SDS011;11028;51.156;17.130;2023-03-01T04:01:13;111.50;;;41.13;;
21731;SDS011;11028;51.156;17.130;2023-03-01T04:08:32;106.18;;;40.42;;
21731;SDS011;11028;51.156;17.130;2023-03-01T04:15:52;89.10;;;36.35;;
21731;SDS011;11028;51.156;17.130;2023-03-01T04:23:12;99.43;;;37.83;;
21731;SDS011;11028;51.156;17.130;2023-03-01T04:30:32;72.38;;;31.13;;
21731;SDS011;11028;51.156;17.130;2023-03-01T04:37:54;77.15;;;30.38;;
21731;SDS011;11028;51.156;17.130;2023-03-01T04:45:13;79.97;;;33.13;;
21731;SDS011;11028;51.156;17.130;2023-03-01T04:52:31;68.25;;;31.20;;
21731;SDS011;11028;51.156;17.130;2023-03-01T04:59:51;75.90;;;32.28;;
21731;SDS011;11028;51.156;17.130;2023-03-01T05:07:09;81.00;;;34.15;;
21731;SDS011;11028;51.156;17.130;2023-03-01T05:14:29;77.72;;;32.38;;
21731;SDS011;11028;51.156;17.130;2023-03-01T05:21:49;81.97;;;34.35;;
21731;SDS011;11028;51.156;17.130;2023-03-01T05:29:20;73.03;;;31.00;;
21731;SDS011;11028;51.156;17.130;2023-03-01T05:36:41;75.97;;;32.97;;
21731;SDS011;11028;51.156;17.130;2023-03-01T05:44:00;74.75;;;32.42;;
21731;SDS011;11028;51.156;17.130;2023-03-01T05:51:21;82.10;;;33.58;;
21731;SDS011;11028;51.156;17.130;2023-03-01T05:58:39;83.95;;;34.55;;
21731;SDS011;11028;51.156;17.130;2023-03-01T06:05:59;92.55;;;34.22;;
21731;SDS011;11028;51.156;17.130;2023-03-01T06:13:17;89.20;;;37.92;;
21731;SDS011;11028;51.156;17.130;2023-03-01T06:20:35;91.30;;;37.25;;
21731;SDS011;11028;51.156;17.130;2023-03-01T06:27:55;87.53;;;37.28;;
21731;SDS011;11028;51.156;17.130;2023-03-01T06:35:14;80.07;;;34.80;;
21731;SDS011;11028;51.156;17.130;2023-03-01T06:42:34;75.97;;;32.92;;
21731;SDS011;11028;51.156;17.130;2023-03-01T06:49:54;68.40;;;31.00;;
21731;SDS011;11028;51.156;17.130;2023-03-01T06:57:12;75.90;;;32.53;;
21731;SDS011;11028;51.156;17.130;2023-03-01T07:04:30;68.60;;;31.42;;
21731;SDS011;11028;51.156;17.130;2023-03-01T07:11:50;74.75;;;34.13;;
21731;SDS011;11028;51.156;17.130;2023-03-01T07:19:08;80.07;;;35.90;;
21731;SDS011;11028;51.156;17.130;2023-03-01T07:26:26;72.65;;;33.72;;
21731;SDS011;11028;51.156;17.130;2023-03-01T07:33:46;81.72;;;32.15;;
21731;SDS011;11028;51.156;17.130;2023-03-01T07:41:05;67.05;;;29.70;;
21731;SDS011;11028;51.156;17.130;2023-03-01T07:48:23;65.60;;;31.05;;
21731;SDS011;11028;51.156;17.130;2023-03-01T07:55:43;51.42;;;25.30;;
21731;SDS011;11028;51.156;17.130;2023-03-01T08:03:01;51.08;;;24.42;;
21731;SDS011;11028;51.156;17.130;2023-03-01T08:10:20;115.22;;;54.80;;
21731;SDS011;11028;51.156;17.130;2023-03-01T08:17:39;59.55;;;28.17;;
21731;SDS011;11028;51.156;17.130;2023-03-01T08:24:57;123.03;;;51.22;;
21731;SDS011;11028;51.156;17.130;2023-03-01T08:32:16;76.00;;;35.17;;
21731;SDS011;11028;51.156;17.130;2023-03-01T08:39:36;62.97;;;31.33;;
21731;SDS011;11028;51.156;17.130;2023-03-01T08:46:54;51.83;;;25.67;;
21731;SDS011;11028;51.156;17.130;2023-03-01T08:54:13;43.63;;;23.00;;
21731;SDS011;11028;51.156;17.130;2023-03-01T09:01:34;45.65;;;24.08;;
21731;SDS011;11028;51.156;17.130;2023-03-01T09:08:53;39.75;;;22.40;;
21731;SDS011;11028;51.156;17.130;2023-03-01T09:16:12;46.13;;;23.23;;
21731;SDS011;11028;51.156;17.130;2023-03-01T09:23:33;41.20;;;21.95;;
21731;SDS011;11028;51.156;17.130;2023-03-01T09:30:52;48.85;;;24.05;;
21731;SDS011;11028;51.156;17.130;2023-03-01T09:38:11;41.90;;;24.13;;
21731;SDS011;11028;51.156;17.130;2023-03-01T09:45:32;44.35;;;22.98;;
21731;SDS011;11028;51.156;17.130;2023-03-01T09:52:53;30.50;;;16.97;;
21731;SDS011;11028;51.156;17.130;2023-03-01T10:00:18;39.28;;;20.48;;
21731;SDS011;11028;51.156;17.130;2023-03-01T10:07:44;40.35;;;20.55;;
21731;SDS011;11028;51.156;17.130;2023-03-01T10:15:09;37.38;;;20.52;;
21731;SDS011;11028;51.156;17.130;2023-03-01T10:22:29;33.77;;;17.73;;
21731;SDS011;11028;51.156;17.130;2023-03-01T10:29:50;32.97;;;18.85;;
21731;SDS011;11028;51.156;17.130;2023-03-01T10:37:14;33.35;;;17.27;;
21731;SDS011;11028;51.156;17.130;2023-03-01T10:44:36;27.13;;;14.80;;
21731;SDS011;11028;51.156;17.130;2023-03-01T10:52:10;39.85;;;21.35;;
21731;SDS011;11028;51.156;17.130;2023-03-01T10:59:35;34.25;;;19.45;;
21731;SDS011;11028;51.156;17.130;2023-03-01T11:06:57;35.40;;;19.77;;
21731;SDS011;11028;51.156;17.130;2023-03-01T11:14:20;33.50;;;19.42;;
21731;SDS011;11028;51.156;17.130;2023-03-01T11:21:44;33.10;;;18.83;;
21731;SDS011;11028;51.156;17.130;2023-03-01T11:29:15;29.25;;;18.48;;
21731;SDS011;11028;51.156;17.130;2023-03-01T11:36:49;34.75;;;17.23;;
21731;SDS011;11028;51.156;17.130;2023-03-01T11:44:11;31.27;;;17.85;;
21731;SDS011;11028;51.156;17.130;2023-03-01T11:51:38;26.60;;;13.88;;
21731;SDS011;11028;51.156;17.130;2023-03-01T11:59:07;26.83;;;13.20;;
21731;SDS011;11028;51.156;17.130;2023-03-01T12:06:42;20.98;;;10.73;;
21731;SDS011;11028;51.156;17.130;2023-03-01T12:14:20;20.20;;;10.70;;
21731;SDS011;11028;51.156;17.130;2023-03-01T12:21:51;16.95;;;9.10;;
21731;SDS011;11028;51.156;17.130;2023-03-01T12:29:21;29.40;;;15.93;;
21731;SDS011;11028;51.156;17.130;2023-03-01T12:36:45;20.88;;;12.07;;
21731;SDS011;11028;51.156;17.130;2023-03-01T12:44:17;17.40;;;10.55;;
21731;SDS011;11028;51.156;17.130;2023-03-01T12:51:49;22.42;;;12.07;;
21731;SDS011;11028;51.156;17.130;2023-03-01T13:06:32;23.42;;;11.48;;
21731;SDS011;11028;51.156;17.130;2023-03-01T13:21:53;20.58;;;11.73;;
21731;SDS011;11028;51.156;17.130;2023-03-01T13:29:13;19.58;;;11.13;;
21731;SDS011;11028;51.156;17.130;2023-03-01T13:36:46;19.60;;;12.27;;
21731;SDS011;11028;51.156;17.130;2023-03-01T13:44:13;23.20;;;12.77;;
21731;SDS011;11028;51.156;17.130;2023-03-01T13:58:58;19.10;;;10.38;;
21731;SDS011;11028;51.156;17.130;2023-03-01T14:06:20;22.83;;;11.70;;
21731;SDS011;11028;51.156;17.130;2023-03-01T14:13:45;22.67;;;11.82;;
21731;SDS011;11028;51.156;17.130;2023-03-01T14:21:12;22.55;;;13.15;;
21731;SDS011;11028;51.156;17.130;2023-03-01T14:28:33;18.25;;;10.27;;
21731;SDS011;11028;51.156;17.130;2023-03-01T14:35:55;17.90;;;10.55;;
21731;SDS011;11028;51.156;17.130;2023-03-01T14:43:16;15.55;;;9.90;;
21731;SDS011;11028;51.156;17.130;2023-03-01T14:50:41;21.85;;;10.93;;
21731;SDS011;11028;51.156;17.130;2023-03-01T14:58:02;18.27;;;10.60;;
21731;SDS011;11028;51.156;17.130;2023-03-01T15:05:23;22.85;;;11.68;;
21731;SDS011;11028;51.156;17.130;2023-03-01T15:12:44;14.63;;;8.63;;
21731;SDS011;11028;51.156;17.130;2023-03-01T15:20:04;24.65;;;11.70;;
21731;SDS011;11028;51.156;17.130;2023-03-01T15:27:25;39.03;;;17.35;;
21731;SDS011;11028;51.156;17.130;2023-03-01T15:34:45;45.58;;;21.45;;
21731;SDS011;11028;51.156;17.130;2023-03-01T15:42:04;37.45;;;16.20;;
21731;SDS011;11028;51.156;17.130;2023-03-01T15:49:26;33.20;;;15.85;;
21731;SDS011;11028;51.156;17.130;2023-03-01T15:58:12;31.45;;;17.40;;
21731;SDS011;11028;51.156;17.130;2023-03-01T16:05:32;40.72;;;20.45;;
21731;SDS011;11028;51.156;17.130;2023-03-01T16:12:52;42.72;;;23.05;;
21731;SDS011;11028;51.156;17.130;2023-03-01T16:20:12;53.28;;;30.38;;
21731;SDS011;11028;51.156;17.130;2023-03-01T16:27:43;56.35;;;28.58;;
21731;SDS011;11028;51.156;17.130;2023-03-01T16:35:02;51.13;;;26.13;;
21731;SDS011;11028;51.156;17.130;2023-03-01T16:42:22;52.67;;;25.60;;
21731;SDS011;11028;51.156;17.130;2023-03-01T16:49:42;59.05;;;29.17;;
21731;SDS011;11028;51.156;17.130;2023-03-01T16:57:01;62.97;;;25.75;;
21731;SDS011;11028;51.156;17.130;2023-03-01T17:04:22;53.58;;;22.17;;
21731;SDS011;11028;51.156;17.130;2023-03-01T17:11:40;76.75;;;31.20;;
21731;SDS011;11028;51.156;17.130;2023-03-01T17:18:58;90.80;;;33.58;;
21731;SDS011;11028;51.156;17.130;2023-03-01T17:26:18;75.55;;;30.90;;
21731;SDS011;11028;51.156;17.130;2023-03-01T17:33:36;82.45;;;35.30;;
21731;SDS011;11028;51.156;17.130;2023-03-01T17:40:54;85.80;;;37.10;;
21731;SDS011;11028;51.156;17.130;2023-03-01T17:48:17;87.40;;;40.28;;
21731;SDS011;11028;51.156;17.130;2023-03-01T17:55:35;84.38;;;39.63;;
21731;SDS011;11028;51.156;17.130;2023-03-01T18:02:54;92.22;;;41.05;;
21731;SDS011;11028;51.156;17.130;2023-03-01T18:10:13;95.63;;;43.85;;
21731;SDS011;11028;51.156;17.130;2023-03-01T18:17:32;88.53;;;37.00;;
21731;SDS011;11028;51.156;17.130;2023-03-01T18:24:50;87.13;;;37.55;;
21731;SDS011;11028;51.156;17.130;2023-03-01T18:32:10;94.47;;;38.90;;
21731;SDS011;11028;51.156;17.130;2023-03-01T18:39:28;87.38;;;37.20;;
21731;SDS011;11028;51.156;17.130;2023-03-01T18:46:47;85.88;;;38.45;;
21731;SDS011;11028;51.156;17.130;2023-03-01T18:54:06;113.63;;;47.22;;
21731;SDS011;11028;51.156;17.130;2023-03-01T19:01:25;479.70;;;186.45;;
21731;SDS011;11028;51.156;17.130;2023-03-01T19:08:46;121.45;;;49.00;;
21731;SDS011;11028;51.156;17.130;2023-03-01T19:16:07;108.90;;;44.95;;
21731;SDS011;11028;51.156;17.130;2023-03-01T19:23:26;99.70;;;44.65;;
21731;SDS011;11028;51.156;17.130;2023-03-01T19:30:44;98.97;;;40.05;;
21731;SDS011;11028;51.156;17.130;2023-03-01T19:38:04;90.35;;;37.08;;
21731;SDS011;11028;51.156;17.130;2023-03-01T19:45:22;86.30;;;36.80;;
21731;SDS011;11028;51.156;17.130;2023-03-01T19:52:49;88.65;;;33.55;;
21731;SDS011;11028;51.156;17.130;2023-03-01T20:00:10;86.45;;;33.80;;
21731;SDS011;11028;51.156;17.130;2023-03-01T20:07:30;84.10;;;34.00;;
21731;SDS011;11028;51.156;17.130;2023-03-01T20:14:48;73.43;;;31.27;;
21731;SDS011;11028;51.156;17.130;2023-03-01T20:22:12;76.20;;;28.98;;
21731;SDS011;11028;51.156;17.130;2023-03-01T20:29:30;82.18;;;31.50;;
21731;SDS011;11028;51.156;17.130;2023-03-01T20:36:49;248.27;;;94.22;;
21731;SDS011;11028;51.156;17.130;2023-03-01T20:44:08;105.40;;;39.83;;
21731;SDS011;11028;51.156;17.130;2023-03-01T20:51:27;96.68;;;37.63;;
21731;SDS011;11028;51.156;17.130;2023-03-01T20:58:46;98.10;;;38.78;;
21731;SDS011;11028;51.156;17.130;2023-03-01T21:06:06;190.07;;;76.40;;
21731;SDS011;11028;51.156;17.130;2023-03-01T21:13:24;138.25;;;57.10;;
21731;SDS011;11028;51.156;17.130;2023-03-01T21:20:43;120.90;;;47.38;;
21731;SDS011;11028;51.156;17.130;2023-03-01T21:28:03;100.35;;;40.85;;
21731;SDS011;11028;51.156;17.130;2023-03-01T21:35:21;115.47;;;46.13;;
21731;SDS011;11028;51.156;17.130;2023-03-01T21:42:39;102.30;;;44.00;;
21731;SDS011;11028;51.156;17.130;2023-03-01T21:50:01;106.05;;;44.17;;
21731;SDS011;11028;51.156;17.130;2023-03-01T21:57:19;107.85;;;43.42;;
21731;SDS011;11028;51.156;17.130;2023-03-01T22:04:38;107.68;;;43.28;;
21731;SDS011;11028;51.156;17.130;2023-03-01T22:11:58;117.53;;;45.38;;
21731;SDS011;11028;51.156;17.130;2023-03-01T22:19:18;115.53;;;44.08;;
21731;SDS011;11028;51.156;17.130;2023-03-01T22:26:38;111.07;;;43.97;;
21731;SDS011;11028;51.156;17.130;2023-03-01T22:33:59;124.45;;;48.22;;
21731;SDS011;11028;51.156;17.130;2023-03-01T22:41:17;148.05;;;55.92;;
21731;SDS011;11028;51.156;17.130;2023-03-01T22:48:36;157.02;;;59.25;;
21731;SDS011;11028;51.156;17.130;2023-03-01T22:55:55;148.35;;;57.95;;
21731;SDS011;11028;51.156;17.130;2023-03-01T23:03:15;166.18;;;62.63;;
21731;SDS011;11028;51.156;17.130;2023-03-01T23:10:38;153.30;;;56.97;;
21731;SDS011;11028;51.156;17.130;2023-03-01T23:18:00;172.80;;;64.25;;
21731;SDS011;11028;51.156;17.130;2023-03-01T23:25:18;195.50;;;73.05;;
21731;SDS011;11028;51.156;17.130;2023-03-01T23:32:36;186.68;;;73.97;;
21731;SDS011;11028;51.156;17.130;2023-03-01T23:39:57;194.05;;;74.53;;
21731;SDS011;11028;51.156;17.130;2023-03-01T23:47:15;191.63;;;73.13;;
21731;SDS011;11028;51.156;17.130;2023-03-01T23:54:33;183.77;;;71.13;;
